createdAt,value
2018-02-17T00:01:43.443Z,36.05
2018-02-17T00:04:10.965Z,44.03
2018-02-17T00:06:38.515Z,32.60
2018-02-17T00:09:06.020Z,34.55
2018-02-17T00:11:33.573Z,33.92
2018-02-17T00:14:01.069Z,30.00
2018-02-17T00:16:28.591Z,32.83
2018-02-17T00:18:56.078Z,33.65
2018-02-17T00:21:23.883Z,38.08
2018-02-17T00:23:51.412Z,48.35
2018-02-17T00:26:19.469Z,50.42
2018-02-17T00:28:47.333Z,52.55
2018-02-17T00:31:14.825Z,43.97
2018-02-17T00:33:42.356Z,52.40
2018-02-17T00:36:09.868Z,86.43
2018-02-17T00:38:37.389Z,105.53
2018-02-17T00:41:05.216Z,91.85
2018-02-17T00:43:32.784Z,90.03
2018-02-17T00:46:00.317Z,83.40
2018-02-17T00:48:29.397Z,80.57
2018-02-17T00:50:56.948Z,71.78
2018-02-17T00:53:25.138Z,55.80
2018-02-17T00:55:52.665Z,48.00
2018-02-17T00:58:20.174Z,49.97
2018-02-17T01:00:47.693Z,45.92
2018-02-17T01:03:15.187Z,39.25
2018-02-17T01:05:42.724Z,40.33
2018-02-17T01:08:10.248Z,37.67
2018-02-17T01:10:37.811Z,32.67
2018-02-17T01:13:05.326Z,37.00
2018-02-17T01:15:32.816Z,34.42
2018-02-17T01:18:00.361Z,34.33
2018-02-17T01:20:27.900Z,38.17
2018-02-17T01:22:55.429Z,45.20
2018-02-17T01:25:22.937Z,43.63
2018-02-17T01:27:50.455Z,43.08
2018-02-17T01:30:17.950Z,39.42
2018-02-17T01:32:45.454Z,35.25
2018-02-17T01:35:12.951Z,35.50
2018-02-17T01:37:40.461Z,31.65
2018-02-17T01:40:07.987Z,35.47
2018-02-17T01:42:35.468Z,33.13
2018-02-17T01:45:02.973Z,31.55
2018-02-17T01:47:30.469Z,34.88
2018-02-17T01:49:57.997Z,31.65
2018-02-17T01:52:25.494Z,36.03
2018-02-17T01:54:53.033Z,32.10
2018-02-17T01:57:20.516Z,28.20
2018-02-17T01:59:48.032Z,33.78
2018-02-17T02:02:15.585Z,33.10
2018-02-17T02:04:43.080Z,33.90
2018-02-17T02:07:11.473Z,36.85
2018-02-17T02:09:39.155Z,44.72
2018-02-17T02:12:06.698Z,36.38
2018-02-17T02:14:34.282Z,34.45
2018-02-17T02:17:01.792Z,37.08
2018-02-17T02:19:33.427Z,34.65
2018-02-17T02:22:00.934Z,38.30
2018-02-17T02:24:28.435Z,40.47
2018-02-17T02:26:55.917Z,38.03
2018-02-17T02:29:23.435Z,40.40
2018-02-17T02:31:50.928Z,40.75
2018-02-17T02:34:18.444Z,38.13
2018-02-17T02:36:45.947Z,40.60
2018-02-17T02:39:13.456Z,42.03
2018-02-17T02:41:40.955Z,37.88
2018-02-17T02:44:08.431Z,38.80
2018-02-17T02:46:35.931Z,38.10
2018-02-17T02:49:03.502Z,47.35
2018-02-17T02:51:31.008Z,38.58
2018-02-17T02:53:58.494Z,43.65
2018-02-17T02:56:26.187Z,38.58
2018-02-17T02:58:53.768Z,37.17
2018-02-17T03:01:21.421Z,39.67
2018-02-17T03:03:48.936Z,37.75
2018-02-17T03:06:16.449Z,34.35
2018-02-17T03:08:43.999Z,38.50
2018-02-17T03:11:11.481Z,34.60
2018-02-17T03:13:39.007Z,36.55
2018-02-17T03:16:06.495Z,38.08
2018-02-17T03:18:34.049Z,39.80
2018-02-17T03:21:01.529Z,40.22
2018-02-17T03:23:29.063Z,38.13
2018-02-17T03:25:56.547Z,33.75
2018-02-17T03:28:24.033Z,34.45
2018-02-17T03:30:51.552Z,37.72
2018-02-17T03:33:19.052Z,35.83
2018-02-17T03:35:48.197Z,37.47
2018-02-17T03:38:15.693Z,36.00
2018-02-17T03:40:43.205Z,34.20
2018-02-17T03:43:10.693Z,41.00
2018-02-17T03:45:38.203Z,37.38
2018-02-17T03:48:05.710Z,39.85
2018-02-17T03:50:33.203Z,33.17
2018-02-17T03:53:00.730Z,32.58
2018-02-17T03:55:28.341Z,34.47
2018-02-17T03:57:55.855Z,39.15
2018-02-17T04:00:23.339Z,36.88
2018-02-17T04:02:50.890Z,35.67
2018-02-17T04:05:18.417Z,36.15
2018-02-17T04:07:45.896Z,35.00
2018-02-17T04:10:13.403Z,32.35
2018-02-17T04:12:40.904Z,34.50
2018-02-17T04:15:08.411Z,38.60
2018-02-17T04:17:35.903Z,36.55
2018-02-17T04:20:03.420Z,34.42
2018-02-17T04:22:30.964Z,31.17
2018-02-17T04:24:58.477Z,36.13
2018-02-17T04:27:26.002Z,34.35
2018-02-17T04:29:53.501Z,32.40
2018-02-17T04:32:21.165Z,34.42
2018-02-17T04:34:48.765Z,36.78
2018-02-17T04:37:16.358Z,31.90
2018-02-17T04:39:46.396Z,34.72
2018-02-17T04:45:21.332Z,34.13
2018-02-17T04:47:48.818Z,31.95
2018-02-17T04:50:22.228Z,34.35
2018-02-17T04:53:00.488Z,33.97
2018-02-17T04:55:28.008Z,30.00
2018-02-17T04:57:57.441Z,30.58
2018-02-17T05:00:36.641Z,29.25
2018-02-17T05:06:21.554Z,34.42
2018-02-17T05:08:50.619Z,33.95
2018-02-17T05:11:18.136Z,32.33
2018-02-17T05:13:45.673Z,31.98
2018-02-17T05:16:29.962Z,35.75
2018-02-17T05:22:11.272Z,31.23
2018-02-17T05:24:41.552Z,34.08
2018-02-17T05:27:24.085Z,32.88
2018-02-17T05:29:52.026Z,31.58
2018-02-17T05:32:19.530Z,35.58
2018-02-17T05:34:52.755Z,31.55
2018-02-17T05:37:20.271Z,31.73
2018-02-17T05:39:50.180Z,31.83
2018-02-17T05:42:20.060Z,34.38
2018-02-17T05:44:53.468Z,29.98
2018-02-17T05:47:31.913Z,33.85
2018-02-17T05:49:59.966Z,25.08
2018-02-17T05:52:27.456Z,31.60
2018-02-17T05:54:54.984Z,27.55
2018-02-17T05:57:22.469Z,28.25
2018-02-17T05:59:49.998Z,27.52
2018-02-17T06:02:17.495Z,29.05
2018-02-17T06:04:45.011Z,29.65
2018-02-17T06:07:12.500Z,29.40
2018-02-17T06:09:40.066Z,26.75
2018-02-17T06:12:07.686Z,32.22
2018-02-17T06:14:35.269Z,25.92
2018-02-17T06:17:03.527Z,29.87
2018-02-17T06:19:31.025Z,27.13
2018-02-17T06:21:58.535Z,38.35
2018-02-17T06:24:26.054Z,27.95
2018-02-17T06:26:53.575Z,28.83
2018-02-17T06:29:21.255Z,34.17
2018-02-17T06:31:48.782Z,33.30
2018-02-17T06:34:16.270Z,30.52
2018-02-17T06:36:43.786Z,29.73
2018-02-17T06:39:11.390Z,31.80
2018-02-17T06:41:38.889Z,30.33
2018-02-17T06:44:06.422Z,31.48
2018-02-17T06:46:33.922Z,36.08
2018-02-17T06:49:02.279Z,29.77
2018-02-17T06:51:29.763Z,25.45
2018-02-17T06:53:57.290Z,27.23
2018-02-17T06:56:24.782Z,31.37
2018-02-17T06:58:52.275Z,27.40
2018-02-17T07:01:19.794Z,24.05
2018-02-17T07:03:47.326Z,29.67
2018-02-17T07:06:14.941Z,28.38
2018-02-17T07:08:42.911Z,30.50
2018-02-17T07:11:10.420Z,34.53
2018-02-17T07:13:37.924Z,27.27
2018-02-17T07:16:05.431Z,31.92
2018-02-17T07:18:32.944Z,29.02
2018-02-17T07:21:00.689Z,30.60
2018-02-17T07:23:28.201Z,32.17
2018-02-17T07:25:55.730Z,25.10
2018-02-17T07:28:23.259Z,31.60
2018-02-17T07:30:50.768Z,27.83
2018-02-17T07:33:18.334Z,27.58
2018-02-17T07:35:45.818Z,31.95
2018-02-17T07:38:13.483Z,30.23
2018-02-17T07:40:41.115Z,30.10
2018-02-17T07:43:08.653Z,31.37
2018-02-17T07:45:36.230Z,30.33
2018-02-17T07:48:03.827Z,28.17
2018-02-17T07:50:31.450Z,21.92
2018-02-17T07:52:59.058Z,28.73
2018-02-17T07:55:26.630Z,39.75
2018-02-17T07:57:54.125Z,32.63
2018-02-17T08:00:21.645Z,27.35
2018-02-17T08:02:49.151Z,26.80
2018-02-17T08:05:16.687Z,27.55
2018-02-17T08:07:44.229Z,29.92
2018-02-17T08:10:14.079Z,24.40
2018-02-17T08:12:41.620Z,25.10
2018-02-17T08:15:09.102Z,25.90
2018-02-17T08:17:36.622Z,26.90
2018-02-17T08:20:04.124Z,26.05
2018-02-17T08:22:31.680Z,25.83
2018-02-17T08:24:59.199Z,26.65
2018-02-17T08:27:26.735Z,24.63
2018-02-17T08:29:54.260Z,26.87
2018-02-17T08:32:21.769Z,31.27
2018-02-17T08:34:49.290Z,28.17
2018-02-17T08:37:16.783Z,24.85
2018-02-17T08:39:44.307Z,27.55
2018-02-17T08:42:11.861Z,30.90
2018-02-17T08:44:39.497Z,25.95
2018-02-17T08:47:06.994Z,27.58
2018-02-17T08:49:34.593Z,30.10
2018-02-17T08:52:02.146Z,30.27
2018-02-17T08:54:29.732Z,31.10
2018-02-17T08:56:57.221Z,27.15
2018-02-17T08:59:24.719Z,29.45
2018-02-17T09:01:52.252Z,30.17
2018-02-17T09:04:19.848Z,27.15
2018-02-17T09:06:47.503Z,32.63
2018-02-17T09:09:15.031Z,28.27
2018-02-17T09:11:42.624Z,27.48
2018-02-17T09:14:10.149Z,22.33
2018-02-17T09:16:37.676Z,29.52
2018-02-17T09:19:05.829Z,29.00
2018-02-17T09:21:33.360Z,27.73
2018-02-17T09:24:00.916Z,27.90
2018-02-17T09:26:28.432Z,27.15
2018-02-17T09:28:56.020Z,25.67
2018-02-17T09:31:23.601Z,28.27
2018-02-17T09:33:51.119Z,33.83
2018-02-17T09:36:18.700Z,27.65
2018-02-17T09:38:46.218Z,26.55
2018-02-17T09:41:13.711Z,25.42
2018-02-17T09:43:41.294Z,27.65
2018-02-17T09:46:08.838Z,25.90
2018-02-17T09:48:36.371Z,21.85
2018-02-17T09:51:03.888Z,24.63
2018-02-17T09:53:31.991Z,24.75
2018-02-17T09:55:59.706Z,22.48
2018-02-17T09:58:27.238Z,26.12
2018-02-17T10:00:54.808Z,26.25
2018-02-17T10:03:22.717Z,18.25
2018-02-17T10:05:50.343Z,22.08
2018-02-17T10:08:17.835Z,22.55
2018-02-17T10:10:45.376Z,19.80
2018-02-17T10:13:13.021Z,28.83
2018-02-17T10:15:40.543Z,25.83
2018-02-17T10:18:08.051Z,24.37
2018-02-17T10:20:35.577Z,27.95
2018-02-17T10:23:03.139Z,22.67
2018-02-17T10:25:30.711Z,26.50
2018-02-17T10:30:32.058Z,29.00
2018-02-17T10:32:59.578Z,27.40
2018-02-17T10:35:27.122Z,23.70
2018-02-17T10:37:54.622Z,21.23
2018-02-17T10:40:22.126Z,28.08
2018-02-17T10:42:49.662Z,22.60
2018-02-17T10:45:17.237Z,20.58
2018-02-17T10:47:45.140Z,22.00
2018-02-17T10:50:12.655Z,25.10
2018-02-17T10:52:40.167Z,23.80
2018-02-17T10:55:07.676Z,27.35
2018-02-17T10:57:36.099Z,27.50
2018-02-17T11:00:03.789Z,29.10
2018-02-17T11:02:31.444Z,23.50
2018-02-17T11:04:58.975Z,25.65
2018-02-17T11:07:26.508Z,20.50
2018-02-17T11:09:54.153Z,23.05
2018-02-17T11:12:21.741Z,26.15
2018-02-17T11:14:49.363Z,28.62
2018-02-17T11:17:17.164Z,22.62
2018-02-17T11:19:44.686Z,28.40
2018-02-17T11:22:12.249Z,24.95
2018-02-17T11:24:39.777Z,31.55
2018-02-17T11:27:07.344Z,28.38
2018-02-17T11:29:34.951Z,25.77
2018-02-17T11:32:02.465Z,25.37
2018-02-17T11:34:29.993Z,26.27
2018-02-17T11:36:57.510Z,28.92
2018-02-17T11:39:25.122Z,31.30
2018-02-17T11:41:52.639Z,26.55
2018-02-17T11:44:20.250Z,27.62
2018-02-17T11:46:47.824Z,26.15
2018-02-17T11:49:15.423Z,22.73
2018-02-17T11:51:42.968Z,25.42
2018-02-17T11:54:10.536Z,28.27
2018-02-17T11:56:38.074Z,25.23
2018-02-17T11:59:05.576Z,24.50
2018-02-17T12:01:33.129Z,24.80
2018-02-17T12:04:01.322Z,23.98
2018-02-17T12:06:28.863Z,26.40
2018-02-17T12:08:56.394Z,22.77
2018-02-17T12:11:23.972Z,22.77
2018-02-17T12:13:51.484Z,21.30
2018-02-17T12:16:19.025Z,21.83
2018-02-17T12:18:46.557Z,20.50
2018-02-17T12:21:14.118Z,21.80
2018-02-17T12:23:41.696Z,20.95
2018-02-17T12:26:09.260Z,20.85
2018-02-17T12:28:36.862Z,20.80
2018-02-17T12:31:04.375Z,19.25
2018-02-17T12:33:32.042Z,19.90
2018-02-17T12:35:59.557Z,19.42
2018-02-17T12:38:27.091Z,19.87
2018-02-17T12:40:54.586Z,18.50
2018-02-17T12:43:22.121Z,21.70
2018-02-17T12:45:49.937Z,18.55
2018-02-17T12:48:17.461Z,19.65
2018-02-17T12:50:45.097Z,19.60
2018-02-17T12:53:12.754Z,16.35
2018-02-17T12:55:40.362Z,18.67
2018-02-17T12:58:07.890Z,17.90
2018-02-17T13:00:35.528Z,18.23
2018-02-17T13:03:03.170Z,19.12
2018-02-17T13:05:30.753Z,16.70
2018-02-17T13:07:58.776Z,15.73
2018-02-17T13:10:26.358Z,19.67
2018-02-17T13:12:53.891Z,18.00
2018-02-17T13:15:21.444Z,15.23
2018-02-17T13:17:48.961Z,18.67
2018-02-17T13:20:16.494Z,17.15
2018-02-17T13:22:44.018Z,15.82
2018-02-17T13:25:11.549Z,16.50
2018-02-17T13:27:39.056Z,18.60
2018-02-17T13:30:06.668Z,18.00
2018-02-17T13:32:34.252Z,20.73
2018-02-17T13:35:01.852Z,15.43
2018-02-17T13:37:29.416Z,20.15
2018-02-17T13:39:56.960Z,21.85
2018-02-17T13:42:24.553Z,21.40
2018-02-17T13:44:52.166Z,21.33
2018-02-17T13:47:19.723Z,20.37
2018-02-17T13:49:47.269Z,23.55
2018-02-17T13:52:14.825Z,19.37
2018-02-17T13:54:42.369Z,18.30
2018-02-17T13:57:09.898Z,20.67
2018-02-17T13:59:37.429Z,23.45
2018-02-17T14:02:05.047Z,20.92
2018-02-17T14:04:32.601Z,23.87
2018-02-17T14:07:00.121Z,21.00
2018-02-17T14:09:27.619Z,22.33
2018-02-17T14:11:55.168Z,18.77
2018-02-17T14:14:22.721Z,21.15
2018-02-17T14:16:50.326Z,19.75
2018-02-17T14:19:17.825Z,21.35
2018-02-17T14:21:45.356Z,20.88
2018-02-17T14:24:12.896Z,19.30
2018-02-17T14:26:40.440Z,17.17
2018-02-17T14:29:07.945Z,16.83
2018-02-17T14:31:35.465Z,15.07
2018-02-17T14:34:03.029Z,17.30
2018-02-17T14:36:30.676Z,17.58
2018-02-17T14:38:58.248Z,22.35
2018-02-17T14:41:25.784Z,17.23
2018-02-17T14:43:53.282Z,17.48
2018-02-17T14:46:20.844Z,25.42
2018-02-17T14:48:48.516Z,19.85
2018-02-17T14:51:16.083Z,19.10
2018-02-17T14:53:43.670Z,20.75
2018-02-17T14:56:11.235Z,16.50
2018-02-17T14:58:38.802Z,15.52
2018-02-17T15:01:06.431Z,18.55
2018-02-17T15:03:34.072Z,19.40
2018-02-17T15:06:01.614Z,18.50
2018-02-17T15:08:29.200Z,14.00
2018-02-17T15:10:56.801Z,18.45
2018-02-17T15:13:24.433Z,18.12
2018-02-17T15:15:52.008Z,17.65
2018-02-17T15:18:19.548Z,14.90
2018-02-17T15:20:47.181Z,15.88
2018-02-17T15:23:14.739Z,18.45
2018-02-17T15:25:42.255Z,15.23
2018-02-17T15:28:09.783Z,14.43
2018-02-17T15:30:37.322Z,12.85
2018-02-17T15:33:04.923Z,13.07
2018-02-17T15:35:32.495Z,13.68
2018-02-17T15:38:00.144Z,11.52
2018-02-17T15:40:27.712Z,15.65
2018-02-17T15:42:56.170Z,12.30
2018-02-17T15:45:23.714Z,14.43
2018-02-17T15:47:51.340Z,14.18
2018-02-17T15:50:18.910Z,13.80
2018-02-17T15:52:46.569Z,13.35
2018-02-17T15:55:14.071Z,13.57
2018-02-17T15:57:41.605Z,12.77
2018-02-17T16:00:09.149Z,20.77
2018-02-17T16:02:36.687Z,30.33
2018-02-17T16:05:04.252Z,64.85
2018-02-17T16:07:32.484Z,30.48
2018-02-17T16:10:00.006Z,15.70
2018-02-17T16:12:27.542Z,14.52
2018-02-17T16:14:55.068Z,13.55
2018-02-17T16:17:22.710Z,11.15
2018-02-17T16:19:50.280Z,10.38
2018-02-17T16:22:17.879Z,13.07
2018-02-17T16:24:45.390Z,11.70
2018-02-17T16:27:12.893Z,9.82
2018-02-17T16:29:40.404Z,15.85
2018-02-17T16:32:07.930Z,11.80
2018-02-17T16:34:35.499Z,10.02
2018-02-17T16:37:03.871Z,10.57
2018-02-17T16:39:32.022Z,10.35
2018-02-17T16:41:59.598Z,15.10
2018-02-17T16:44:27.152Z,15.45
2018-02-17T16:46:54.737Z,12.88
2018-02-17T16:49:22.341Z,14.30
2018-02-17T16:51:50.487Z,14.35
2018-02-17T16:54:18.059Z,14.00
2018-02-17T16:56:45.569Z,16.52
2018-02-17T16:59:13.794Z,15.88
2018-02-17T17:01:41.336Z,16.12
2018-02-17T17:04:08.905Z,14.75
2018-02-17T17:06:36.402Z,16.85
2018-02-17T17:09:03.918Z,19.08
2018-02-17T17:11:31.431Z,17.70
2018-02-17T17:13:58.961Z,18.02
2018-02-17T17:16:26.555Z,18.62
2018-02-17T17:18:54.103Z,17.75
2018-02-17T17:21:21.648Z,20.05
2018-02-17T17:23:49.161Z,24.25
2018-02-17T17:26:17.154Z,20.23
2018-02-17T17:28:44.745Z,21.37
2018-02-17T17:31:12.319Z,21.15
2018-02-17T17:33:39.863Z,18.23
2018-02-17T17:36:07.450Z,18.77
2018-02-17T17:38:34.964Z,17.62
2018-02-17T17:41:02.488Z,24.58
2018-02-17T17:43:29.998Z,18.70
2018-02-17T17:45:57.605Z,19.80
2018-02-17T17:48:25.909Z,21.92
2018-02-17T17:50:53.772Z,21.45
2018-02-17T17:53:21.264Z,23.62
2018-02-17T17:55:48.832Z,22.25
2018-02-17T17:58:16.348Z,26.15
2018-02-17T18:00:43.881Z,20.88
2018-02-17T18:03:11.415Z,24.73
2018-02-17T18:05:39.012Z,20.80
2018-02-17T18:08:06.523Z,22.25
2018-02-17T18:10:34.021Z,23.35
2018-02-17T18:13:01.564Z,25.33
2018-02-17T18:15:29.090Z,24.85
2018-02-17T18:17:56.651Z,24.42
2018-02-17T18:20:24.155Z,23.08
2018-02-17T18:22:51.743Z,37.95
2018-02-17T18:25:19.274Z,27.00
2018-02-17T18:27:46.792Z,24.08
2018-02-17T18:30:14.320Z,23.87
2018-02-17T18:32:42.444Z,28.23
2018-02-17T18:35:09.970Z,30.60
2018-02-17T18:37:37.482Z,34.50
2018-02-17T18:40:05.016Z,37.17
2018-02-17T18:42:32.882Z,27.40
2018-02-17T18:45:00.399Z,27.00
2018-02-17T18:47:27.928Z,28.70
2018-02-17T18:49:55.433Z,25.73
2018-02-17T18:52:23.004Z,23.40
2018-02-17T18:54:50.668Z,25.50
2018-02-17T18:57:18.206Z,22.23
2018-02-17T18:59:45.699Z,21.37
2018-02-17T19:02:13.272Z,22.62
2018-02-17T19:04:40.767Z,22.48
2018-02-17T19:07:08.497Z,23.15
2018-02-17T19:09:36.154Z,24.37
2018-02-17T19:12:03.777Z,23.05
2018-02-17T19:14:31.309Z,21.98
2018-02-17T19:16:58.825Z,25.23
2018-02-17T19:19:26.842Z,27.65
2018-02-17T19:21:54.332Z,26.40
2018-02-17T19:24:26.592Z,28.30
2018-02-17T19:26:54.180Z,27.45
2018-02-17T19:29:21.751Z,29.45
2018-02-17T19:31:49.310Z,32.45
2018-02-17T19:34:16.829Z,30.08
2018-02-17T19:36:44.737Z,31.90
2018-02-17T19:39:12.784Z,34.05
2018-02-17T19:41:40.301Z,33.40
2018-02-17T19:44:07.831Z,35.83
2018-02-17T19:46:35.395Z,46.65
2018-02-17T19:49:03.220Z,35.80
2018-02-17T19:51:31.363Z,38.22
2018-02-17T19:53:58.850Z,42.22
2018-02-17T19:56:26.388Z,39.15
2018-02-17T19:58:54.190Z,39.80
2018-02-17T20:01:21.714Z,36.00
2018-02-17T20:03:49.248Z,41.08
2018-02-17T20:06:16.766Z,39.88
2018-02-17T20:08:44.353Z,46.35
2018-02-17T20:11:11.849Z,43.95
2018-02-17T20:13:43.612Z,40.20
2018-02-17T20:16:11.178Z,45.22
2018-02-17T20:18:39.369Z,42.30
2018-02-17T20:21:07.398Z,45.33
2018-02-17T20:23:34.933Z,40.53
2018-02-17T20:26:02.430Z,43.70
2018-02-17T20:28:29.951Z,45.83
2018-02-17T20:30:57.478Z,47.60
2018-02-17T20:33:24.989Z,46.97
2018-02-17T20:35:52.593Z,47.72
2018-02-17T20:38:20.643Z,47.58
2018-02-17T20:40:48.192Z,50.08
2018-02-17T20:43:15.732Z,47.62
2018-02-17T20:45:43.268Z,47.45
2018-02-17T20:48:10.771Z,44.50
2018-02-17T20:50:38.300Z,46.35
2018-02-17T20:53:05.807Z,41.45
2018-02-17T20:55:33.334Z,44.22
2018-02-17T20:58:00.835Z,44.08
2018-02-17T21:00:28.333Z,44.33
2018-02-17T21:02:56.397Z,48.33
2018-02-17T21:05:23.848Z,48.63
2018-02-17T21:07:51.452Z,50.70
2018-02-17T21:10:18.951Z,43.75
2018-02-17T21:12:46.503Z,54.08
2018-02-17T21:15:14.009Z,46.80
2018-02-17T21:17:41.543Z,64.28
2018-02-17T21:20:09.099Z,88.70
2018-02-17T21:22:36.597Z,78.68
2018-02-17T21:25:04.167Z,62.75
2018-02-17T21:27:31.688Z,56.50
2018-02-17T21:29:59.230Z,47.33
2018-02-17T21:32:26.749Z,53.60
2018-02-17T21:34:54.464Z,67.40
2018-02-17T21:37:22.115Z,51.33
2018-02-17T21:39:49.648Z,49.15
2018-02-17T21:42:17.292Z,50.38
2018-02-17T21:44:44.817Z,58.08
2018-02-17T21:47:12.435Z,61.17
2018-02-17T21:49:40.020Z,61.67
2018-02-17T21:52:07.566Z,60.85
2018-02-17T21:54:35.050Z,62.97
2018-02-17T21:57:02.621Z,52.05
2018-02-17T21:59:30.196Z,57.15
2018-02-17T22:01:57.729Z,65.37
2018-02-17T22:04:25.242Z,55.78
2018-02-17T22:06:52.730Z,61.97
2018-02-17T22:09:20.257Z,59.33
2018-02-17T22:11:47.781Z,60.28
2018-02-17T22:14:15.319Z,55.40
2018-02-17T22:16:42.842Z,53.22
2018-02-17T22:19:10.385Z,53.58
2018-02-17T22:21:37.868Z,57.70
2018-02-17T22:24:05.459Z,62.95
2018-02-17T22:26:32.981Z,68.10
2018-02-17T22:29:00.454Z,51.15
2018-02-17T22:31:28.047Z,54.22
2018-02-17T22:33:55.629Z,52.47
2018-02-17T22:36:23.247Z,50.75
2018-02-17T22:38:50.900Z,50.10
2018-02-17T22:41:18.431Z,50.30
2018-02-17T22:43:46.077Z,53.40
2018-02-17T22:46:13.666Z,49.35
2018-02-17T22:48:41.194Z,49.85
2018-02-17T22:51:08.713Z,48.65
2018-02-17T22:53:36.249Z,52.85
2018-02-17T22:56:03.767Z,57.92
2018-02-17T22:58:31.892Z,58.08
2018-02-17T23:00:59.449Z,58.63
2018-02-17T23:03:26.959Z,53.50
2018-02-17T23:05:54.508Z,49.95
2018-02-17T23:08:22.036Z,56.10
2018-02-17T23:10:49.606Z,54.95
2018-02-17T23:13:17.120Z,55.80
2018-02-17T23:15:44.704Z,54.83
2018-02-17T23:18:12.282Z,58.28
2018-02-17T23:20:39.861Z,55.30
2018-02-17T23:23:07.449Z,63.80
2018-02-17T23:25:35.013Z,53.35
2018-02-17T23:28:02.533Z,52.13
2018-02-17T23:30:30.078Z,56.60
2018-02-17T23:32:57.596Z,56.60
2018-02-17T23:35:25.139Z,54.53
2018-02-17T23:37:52.643Z,56.35
2018-02-17T23:40:20.174Z,56.50
2018-02-17T23:42:47.668Z,54.67
2018-02-17T23:45:15.196Z,56.17
2018-02-17T23:47:42.700Z,55.00
2018-02-17T23:50:10.235Z,51.17
2018-02-17T23:52:37.751Z,51.72
2018-02-17T23:55:05.271Z,53.80
2018-02-17T23:57:32.789Z,49.03
